sensor_id;sensor_type;location;lat;lon;timestamp;pressure;altitude;pressure_sealevel;temperature;humidity
3122;BME280;1571;52.524;14.104;2022-08-11T00:02:25;101855.31;;;16.64;80.42
3122;BME280;1571;52.524;14.104;2022-08-11T00:04:55;101848.66;;;16.70;79.68
3122;BME280;1571;52.524;14.104;2022-08-11T00:07:24;101846.31;;;16.78;79.51
3122;BME280;1571;52.524;14.104;2022-08-11T00:09:54;101848.97;;;16.78;79.67
3122;BME280;1571;52.524;14.104;2022-08-11T00:12:23;101841.38;;;16.59;80.03
3122;BME280;1571;52.524;14.104;2022-08-11T00:14:56;101847.38;;;16.63;80.65
3122;BME280;1571;52.524;14.104;2022-08-11T00:17:32;101847.41;;;16.37;81.81
3122;BME280;1571;52.524;14.104;2022-08-11T00:20:06;101851.34;;;16.44;81.88
3122;BME280;1571;52.524;14.104;2022-08-11T00:22:43;101843.41;;;16.43;83.50
3122;BME280;1571;52.524;14.104;2022-08-11T00:25:15;101849.53;;;16.19;84.05
3122;BME280;1571;52.524;14.104;2022-08-11T00:27:44;101849.72;;;16.29;83.94
3122;BME280;1571;52.524;14.104;2022-08-11T00:30:14;101851.22;;;16.08;83.69
3122;BME280;1571;52.524;14.104;2022-08-11T00:32:52;101847.75;;;15.93;84.44
3122;BME280;1571;52.524;14.104;2022-08-11T00:35:25;101849.50;;;16.07;83.94
3122;BME280;1571;52.524;14.104;2022-08-11T00:38:15;101847.97;;;16.02;83.75
3122;BME280;1571;52.524;14.104;2022-08-11T00:40:52;101852.16;;;16.07;85.18
3122;BME280;1571;52.524;14.104;2022-08-11T00:43:31;101848.06;;;15.88;85.63
3122;BME280;1571;52.524;14.104;2022-08-11T00:46:16;101851.28;;;15.93;85.48
3122;BME280;1571;52.524;14.104;2022-08-11T00:49:01;101844.72;;;15.85;85.85
3122;BME280;1571;52.524;14.104;2022-08-11T00:51:42;101855.44;;;15.85;85.91
3122;BME280;1571;52.524;14.104;2022-08-11T00:54:51;101853.50;;;15.74;85.83
3122;BME280;1571;52.524;14.104;2022-08-11T00:57:49;101854.63;;;15.70;86.41
3122;BME280;1571;52.524;14.104;2022-08-11T01:00:21;101853.81;;;15.55;86.47
3122;BME280;1571;52.524;14.104;2022-08-11T01:03:05;101856.25;;;15.72;86.21
3122;BME280;1571;52.524;14.104;2022-08-11T01:05:54;101852.78;;;15.70;85.27
3122;BME280;1571;52.524;14.104;2022-08-11T01:08:42;101858.31;;;15.54;85.57
3122;BME280;1571;52.524;14.104;2022-08-11T01:11:30;101863.66;;;15.54;85.71
3122;BME280;1571;52.524;14.104;2022-08-11T01:14:34;101853.56;;;15.45;86.47
3122;BME280;1571;52.524;14.104;2022-08-11T01:20:32;101853.69;;;15.29;89.01
3122;BME280;1571;52.524;14.104;2022-08-11T01:26:58;101855.75;;;15.11;89.86
3122;BME280;1571;52.524;14.104;2022-08-11T01:30:14;101850.38;;;15.11;89.27
3122;BME280;1571;52.524;14.104;2022-08-11T01:33:08;101852.84;;;15.14;89.32
3122;BME280;1571;52.524;14.104;2022-08-11T01:36:11;101853.06;;;15.11;89.18
3122;BME280;1571;52.524;14.104;2022-08-11T01:39:09;101854.81;;;14.98;89.84
3122;BME280;1571;52.524;14.104;2022-08-11T01:42:00;101843.53;;;14.93;90.39
3122;BME280;1571;52.524;14.104;2022-08-11T01:45:02;101849.94;;;14.76;91.61
3122;BME280;1571;52.524;14.104;2022-08-11T01:47:38;101849.53;;;14.68;92.20
3122;BME280;1571;52.524;14.104;2022-08-11T01:50:27;101863.00;;;14.81;92.46
3122;BME280;1571;52.524;14.104;2022-08-11T01:53:15;101852.13;;;14.84;91.31
3122;BME280;1571;52.524;14.104;2022-08-11T01:55:51;101862.16;;;14.80;90.93
3122;BME280;1571;52.524;14.104;2022-08-11T01:58:30;101858.59;;;14.51;91.89
3122;BME280;1571;52.524;14.104;2022-08-11T02:01:23;101859.91;;;14.44;92.36
3122;BME280;1571;52.524;14.104;2022-08-11T02:03:59;101849.03;;;14.32;93.41
3122;BME280;1571;52.524;14.104;2022-08-11T02:06:40;101853.25;;;14.36;94.07
3122;BME280;1571;52.524;14.104;2022-08-11T02:09:45;101854.94;;;14.37;95.32
3122;BME280;1571;52.524;14.104;2022-08-11T02:12:31;101847.09;;;14.20;95.61
3122;BME280;1571;52.524;14.104;2022-08-11T02:15:10;101849.25;;;14.13;95.75
3122;BME280;1571;52.524;14.104;2022-08-11T02:17:49;101843.09;;;14.27;95.54
3122;BME280;1571;52.524;14.104;2022-08-11T02:20:23;101843.84;;;14.29;95.03
3122;BME280;1571;52.524;14.104;2022-08-11T02:23:23;101844.91;;;14.27;94.62
3122;BME280;1571;52.524;14.104;2022-08-11T02:26:34;101842.78;;;14.18;95.38
3122;BME280;1571;52.524;14.104;2022-08-11T02:29:14;101842.88;;;14.16;95.37
3122;BME280;1571;52.524;14.104;2022-08-11T02:32:04;101838.28;;;14.18;95.03
3122;BME280;1571;52.524;14.104;2022-08-11T02:35:03;101837.53;;;14.16;95.03
3122;BME280;1571;52.524;14.104;2022-08-11T02:37:43;101833.34;;;14.12;95.06
3122;BME280;1571;52.524;14.104;2022-08-11T02:40:23;101826.69;;;13.89;96.05
3122;BME280;1571;52.524;14.104;2022-08-11T02:43:04;101828.06;;;13.96;96.20
3122;BME280;1571;52.524;14.104;2022-08-11T02:45:55;101825.84;;;13.88;96.24
3122;BME280;1571;52.524;14.104;2022-08-11T02:48:39;101828.59;;;13.87;96.26
3122;BME280;1571;52.524;14.104;2022-08-11T02:51:38;101836.09;;;13.80;95.75
3122;BME280;1571;52.524;14.104;2022-08-11T02:54:13;101835.69;;;13.72;96.17
3122;BME280;1571;52.524;14.104;2022-08-11T02:56:48;101836.63;;;13.71;96.58
3122;BME280;1571;52.524;14.104;2022-08-11T02:59:26;101832.44;;;13.67;97.04
3122;BME280;1571;52.524;14.104;2022-08-11T03:02:20;101830.13;;;13.61;97.63
3122;BME280;1571;52.524;14.104;2022-08-11T03:05:05;101823.50;;;13.52;98.05
3122;BME280;1571;52.524;14.104;2022-08-11T03:07:40;101829.31;;;13.44;98.51
3122;BME280;1571;52.524;14.104;2022-08-11T03:10:20;101837.13;;;13.47;99.48
3122;BME280;1571;52.524;14.104;2022-08-11T03:12:53;101835.22;;;13.49;98.73
3122;BME280;1571;52.524;14.104;2022-08-11T03:15:48;101825.41;;;13.50;98.58
3122;BME280;1571;52.524;14.104;2022-08-11T03:18:41;101834.88;;;13.56;97.33
3122;BME280;1571;52.524;14.104;2022-08-11T03:21:19;101834.25;;;13.50;97.23
3122;BME280;1571;52.524;14.104;2022-08-11T03:23:56;101833.75;;;13.44;97.27
3122;BME280;1571;52.524;14.104;2022-08-11T03:26:31;101839.34;;;13.39;97.84
3122;BME280;1571;52.524;14.104;2022-08-11T03:29:03;101832.28;;;13.22;98.35
3122;BME280;1571;52.524;14.104;2022-08-11T03:31:39;101834.84;;;13.24;98.91
3122;BME280;1571;52.524;14.104;2022-08-11T03:34:15;101837.78;;;13.35;98.54
3122;BME280;1571;52.524;14.104;2022-08-11T03:37:23;101842.69;;;13.27;99.21
3122;BME280;1571;52.524;14.104;2022-08-11T03:40:38;101840.88;;;13.27;99.41
3122;BME280;1571;52.524;14.104;2022-08-11T03:43:45;101851.53;;;13.11;99.90
3122;BME280;1571;52.524;14.104;2022-08-11T03:46:37;101845.94;;;13.16;99.72
3122;BME280;1571;52.524;14.104;2022-08-11T03:49:22;101848.88;;;13.11;100.00
3122;BME280;1571;52.524;14.104;2022-08-11T03:51:55;101851.88;;;13.05;100.00
3122;BME280;1571;52.524;14.104;2022-08-11T03:54:31;101857.72;;;12.96;99.84
3122;BME280;1571;52.524;14.104;2022-08-11T04:03:41;101849.91;;;12.93;100.00
3122;BME280;1571;52.524;14.104;2022-08-11T04:12:44;101844.31;;;13.13;100.00
3122;BME280;1571;52.524;14.104;2022-08-11T04:15:50;101841.75;;;13.28;100.00
3122;BME280;1571;52.524;14.104;2022-08-11T04:18:50;101843.25;;;13.33;99.82
3122;BME280;1571;52.524;14.104;2022-08-11T04:21:50;101847.97;;;13.44;98.92
3122;BME280;1571;52.524;14.104;2022-08-11T04:24:33;101843.13;;;13.67;97.72
3122;BME280;1571;52.524;14.104;2022-08-11T04:27:22;101850.31;;;13.81;96.81
3122;BME280;1571;52.524;14.104;2022-08-11T04:30:07;101851.75;;;13.86;95.82
3122;BME280;1571;52.524;14.104;2022-08-11T04:33:01;101847.50;;;13.98;94.88
3122;BME280;1571;52.524;14.104;2022-08-11T04:35:46;101845.38;;;14.33;93.47
3122;BME280;1571;52.524;14.104;2022-08-11T04:38:36;101844.88;;;14.57;91.92
3122;BME280;1571;52.524;14.104;2022-08-11T04:41:19;101850.91;;;14.75;90.85
3122;BME280;1571;52.524;14.104;2022-08-11T04:44:30;101838.56;;;14.72;90.49
3122;BME280;1571;52.524;14.104;2022-08-11T04:47:11;101848.19;;;15.04;89.79
3122;BME280;1571;52.524;14.104;2022-08-11T04:50:31;101849.72;;;15.08;89.42
3122;BME280;1571;52.524;14.104;2022-08-11T04:53:51;101855.91;;;15.23;89.53
3122;BME280;1571;52.524;14.104;2022-08-11T04:56:42;101847.38;;;15.30;90.05
3122;BME280;1571;52.524;14.104;2022-08-11T04:59:42;101851.66;;;15.47;88.78
3122;BME280;1571;52.524;14.104;2022-08-11T05:03:27;101848.22;;;15.72;86.97
3122;BME280;1571;52.524;14.104;2022-08-11T05:06:11;101843.66;;;15.87;85.38
3122;BME280;1571;52.524;14.104;2022-08-11T05:09:07;101849.59;;;16.05;84.51
3122;BME280;1571;52.524;14.104;2022-08-11T05:11:52;101852.53;;;16.40;82.56
3122;BME280;1571;52.524;14.104;2022-08-11T05:14:33;101846.41;;;16.13;82.41
3122;BME280;1571;52.524;14.104;2022-08-11T05:17:29;101850.78;;;16.01;83.45
3122;BME280;1571;52.524;14.104;2022-08-11T05:20:20;101856.38;;;16.36;82.21
3122;BME280;1571;52.524;14.104;2022-08-11T05:23:12;101854.66;;;16.74;83.12
3122;BME280;1571;52.524;14.104;2022-08-11T05:26:02;101856.59;;;16.72;80.40
3122;BME280;1571;52.524;14.104;2022-08-11T05:29:25;101855.09;;;16.55;81.71
3122;BME280;1571;52.524;14.104;2022-08-11T05:32:15;101859.56;;;17.18;78.77
3122;BME280;1571;52.524;14.104;2022-08-11T05:35:04;101871.16;;;17.19;77.17
3122;BME280;1571;52.524;14.104;2022-08-11T05:37:39;101867.47;;;17.33;76.83
3122;BME280;1571;52.524;14.104;2022-08-11T05:40:11;101873.63;;;17.46;77.09
3122;BME280;1571;52.524;14.104;2022-08-11T05:43:01;101870.63;;;17.51;76.23
3122;BME280;1571;52.524;14.104;2022-08-11T05:45:55;101873.72;;;17.57;75.16
3122;BME280;1571;52.524;14.104;2022-08-11T05:48:42;101876.75;;;17.77;75.96
3122;BME280;1571;52.524;14.104;2022-08-11T05:51:33;101879.06;;;18.05;73.44
3122;BME280;1571;52.524;14.104;2022-08-11T05:54:23;101881.03;;;18.15;73.60
3122;BME280;1571;52.524;14.104;2022-08-11T05:57:18;101876.44;;;18.28;73.29
3122;BME280;1571;52.524;14.104;2022-08-11T06:00:10;101876.44;;;18.28;71.85
3122;BME280;1571;52.524;14.104;2022-08-11T06:02:40;101887.53;;;18.70;70.91
3122;BME280;1571;52.524;14.104;2022-08-11T06:05:10;101882.47;;;18.43;71.75
3122;BME280;1571;52.524;14.104;2022-08-11T06:07:40;101885.56;;;18.72;72.36
3122;BME280;1571;52.524;14.104;2022-08-11T06:10:24;101895.38;;;19.29;71.23
3122;BME280;1571;52.524;14.104;2022-08-11T06:12:54;101896.91;;;19.66;69.31
3122;BME280;1571;52.524;14.104;2022-08-11T06:15:26;101900.03;;;19.39;68.84
3122;BME280;1571;52.524;14.104;2022-08-11T06:17:56;101894.47;;;19.51;69.35
3122;BME280;1571;52.524;14.104;2022-08-11T06:20:28;101897.31;;;19.93;69.87
3122;BME280;1571;52.524;14.104;2022-08-11T06:23:04;101910.34;;;20.09;67.84
3122;BME280;1571;52.524;14.104;2022-08-11T06:25:35;101898.66;;;20.41;66.03
3122;BME280;1571;52.524;14.104;2022-08-11T06:28:05;101900.69;;;20.28;66.75
3122;BME280;1571;52.524;14.104;2022-08-11T06:30:37;101910.50;;;20.71;66.04
3122;BME280;1571;52.524;14.104;2022-08-11T06:33:08;101911.66;;;20.68;65.24
3122;BME280;1571;52.524;14.104;2022-08-11T06:35:46;101918.84;;;21.19;64.20
3122;BME280;1571;52.524;14.104;2022-08-11T06:38:27;101909.84;;;21.09;64.49
3122;BME280;1571;52.524;14.104;2022-08-11T06:41:12;101916.88;;;21.31;63.67
3122;BME280;1571;52.524;14.104;2022-08-11T06:44:15;101916.44;;;21.26;63.46
3122;BME280;1571;52.524;14.104;2022-08-11T06:46:50;101917.66;;;21.43;63.28
3122;BME280;1571;52.524;14.104;2022-08-11T06:49:32;101916.88;;;21.62;63.10
3122;BME280;1571;52.524;14.104;2022-08-11T06:52:28;101911.22;;;22.14;62.59
3122;BME280;1571;52.524;14.104;2022-08-11T06:55:13;101912.06;;;22.14;62.15
3122;BME280;1571;52.524;14.104;2022-08-11T06:58:25;101914.78;;;22.34;61.00
3122;BME280;1571;52.524;14.104;2022-08-11T07:01:17;101915.63;;;22.91;60.94
3122;BME280;1571;52.524;14.104;2022-08-11T07:03:52;101909.16;;;23.12;60.76
3122;BME280;1571;52.524;14.104;2022-08-11T07:06:32;101912.13;;;23.18;59.91
3122;BME280;1571;52.524;14.104;2022-08-11T07:09:35;101906.75;;;23.36;59.42
3122;BME280;1571;52.524;14.104;2022-08-11T07:12:36;101907.13;;;23.69;58.43
3122;BME280;1571;52.524;14.104;2022-08-11T07:15:27;101916.38;;;23.76;57.68
3122;BME280;1571;52.524;14.104;2022-08-11T07:18:34;101908.28;;;24.02;56.01
3122;BME280;1571;52.524;14.104;2022-08-11T07:21:24;101907.53;;;24.10;55.37
3122;BME280;1571;52.524;14.104;2022-08-11T07:24:33;101911.63;;;24.32;55.91
3122;BME280;1571;52.524;14.104;2022-08-11T07:27:33;101909.59;;;24.34;54.97
3122;BME280;1571;52.524;14.104;2022-08-11T07:30:21;101911.66;;;24.58;55.39
3122;BME280;1571;52.524;14.104;2022-08-11T07:32:54;101915.63;;;24.46;54.81
3122;BME280;1571;52.524;14.104;2022-08-11T07:35:27;101909.00;;;24.66;53.38
3122;BME280;1571;52.524;14.104;2022-08-11T07:38:01;101904.00;;;24.80;53.81
3122;BME280;1571;52.524;14.104;2022-08-11T07:40:34;101908.25;;;24.82;52.75
3122;BME280;1571;52.524;14.104;2022-08-11T07:43:03;101906.44;;;24.99;53.24
3122;BME280;1571;52.524;14.104;2022-08-11T07:45:33;101903.34;;;24.86;53.99
3122;BME280;1571;52.524;14.104;2022-08-11T07:48:19;101904.91;;;24.62;53.20
3122;BME280;1571;52.524;14.104;2022-08-11T07:51:05;101901.41;;;25.04;53.15
3122;BME280;1571;52.524;14.104;2022-08-11T07:53:53;101903.41;;;25.02;52.50
3122;BME280;1571;52.524;14.104;2022-08-11T07:56:34;101904.97;;;25.05;53.37
3122;BME280;1571;52.524;14.104;2022-08-11T07:59:22;101904.66;;;25.16;51.73
3122;BME280;1571;52.524;14.104;2022-08-11T08:02:38;101899.50;;;25.39;51.48
3122;BME280;1571;52.524;14.104;2022-08-11T08:05:24;101904.63;;;25.42;50.71
3122;BME280;1571;52.524;14.104;2022-08-11T08:08:12;101909.16;;;25.25;50.45
3122;BME280;1571;52.524;14.104;2022-08-11T08:11:00;101920.22;;;25.32;50.60
3122;BME280;1571;52.524;14.104;2022-08-11T08:13:53;101918.88;;;25.44;50.36
3122;BME280;1571;52.524;14.104;2022-08-11T08:16:41;101917.97;;;25.86;49.15
3122;BME280;1571;52.524;14.104;2022-08-11T08:19:27;101910.69;;;25.95;49.02
3122;BME280;1571;52.524;14.104;2022-08-11T08:21:56;101913.19;;;25.72;48.70
3122;BME280;1571;52.524;14.104;2022-08-11T08:24:45;101910.47;;;25.72;49.61
3122;BME280;1571;52.524;14.104;2022-08-11T08:27:15;101906.56;;;25.74;48.67
3122;BME280;1571;52.524;14.104;2022-08-11T08:29:44;101907.28;;;25.93;48.58
3122;BME280;1571;52.524;14.104;2022-08-11T08:32:31;101902.19;;;26.31;47.95
3122;BME280;1571;52.524;14.104;2022-08-11T08:35:02;101909.00;;;26.35;48.07
3122;BME280;1571;52.524;14.104;2022-08-11T08:37:31;101910.84;;;26.43;47.18
3122;BME280;1571;52.524;14.104;2022-08-11T08:40:13;101901.69;;;26.35;46.78
3122;BME280;1571;52.524;14.104;2022-08-11T08:42:47;101893.16;;;26.47;48.12
3122;BME280;1571;52.524;14.104;2022-08-11T08:45:17;101901.34;;;26.30;47.25
3122;BME280;1571;52.524;14.104;2022-08-11T08:47:51;101895.91;;;26.55;46.48
3122;BME280;1571;52.524;14.104;2022-08-11T08:50:21;101899.81;;;26.61;46.32
3122;BME280;1571;52.524;14.104;2022-08-11T08:53:13;101890.06;;;26.74;46.61
3122;BME280;1571;52.524;14.104;2022-08-11T08:55:44;101887.69;;;26.79;47.30
3122;BME280;1571;52.524;14.104;2022-08-11T08:58:15;101887.41;;;26.97;45.88
3122;BME280;1571;52.524;14.104;2022-08-11T09:00:49;101885.13;;;27.26;45.30
3122;BME280;1571;52.524;14.104;2022-08-11T09:03:19;101877.72;;;27.03;45.09
3122;BME280;1571;52.524;14.104;2022-08-11T09:06:08;101877.78;;;26.87;46.66
3122;BME280;1571;52.524;14.104;2022-08-11T09:08:37;101887.19;;;27.24;44.85
3122;BME280;1571;52.524;14.104;2022-08-11T09:11:07;101889.19;;;27.30;44.27
3122;BME280;1571;52.524;14.104;2022-08-11T09:13:57;101891.06;;;26.82;44.43
3122;BME280;1571;52.524;14.104;2022-08-11T09:16:34;101878.09;;;26.84;42.73
3122;BME280;1571;52.524;14.104;2022-08-11T09:19:03;101871.72;;;26.60;43.35
3122;BME280;1571;52.524;14.104;2022-08-11T09:21:32;101871.28;;;26.96;43.17
3122;BME280;1571;52.524;14.104;2022-08-11T09:24:16;101867.03;;;27.33;44.08
3122;BME280;1571;52.524;14.104;2022-08-11T09:27:05;101869.44;;;27.19;42.55
3122;BME280;1571;52.524;14.104;2022-08-11T09:29:36;101870.97;;;26.83;41.59
3122;BME280;1571;52.524;14.104;2022-08-11T09:32:05;101865.69;;;27.29;42.12
3122;BME280;1571;52.524;14.104;2022-08-11T09:34:36;101867.09;;;27.16;42.42
3122;BME280;1571;52.524;14.104;2022-08-11T09:37:07;101872.41;;;27.10;41.80
3122;BME280;1571;52.524;14.104;2022-08-11T09:40:14;101869.44;;;27.19;42.52
3122;BME280;1571;52.524;14.104;2022-08-11T09:43:03;101866.81;;;27.03;41.45
3122;BME280;1571;52.524;14.104;2022-08-11T09:45:53;101870.06;;;27.38;40.97
3122;BME280;1571;52.524;14.104;2022-08-11T09:48:30;101860.59;;;27.26;41.88
3122;BME280;1571;52.524;14.104;2022-08-11T09:51:02;101863.31;;;27.17;41.21
3122;BME280;1571;52.524;14.104;2022-08-11T09:53:32;101853.81;;;27.13;41.39
3122;BME280;1571;52.524;14.104;2022-08-11T09:56:11;101862.78;;;26.91;41.60
3122;BME280;1571;52.524;14.104;2022-08-11T09:58:58;101850.22;;;27.52;40.23
3122;BME280;1571;52.524;14.104;2022-08-11T10:01:29;101847.44;;;26.98;40.09
3122;BME280;1571;52.524;14.104;2022-08-11T10:04:11;101840.16;;;27.22;41.03
3122;BME280;1571;52.524;14.104;2022-08-11T10:06:44;101835.72;;;27.75;40.96
3122;BME280;1571;52.524;14.104;2022-08-11T10:09:38;101838.84;;;27.95;41.04
3122;BME280;1571;52.524;14.104;2022-08-11T10:12:09;101842.19;;;27.51;39.48
3122;BME280;1571;52.524;14.104;2022-08-11T10:14:42;101837.59;;;27.51;40.14
3122;BME280;1571;52.524;14.104;2022-08-11T10:17:33;101839.41;;;27.36;39.05
3122;BME280;1571;52.524;14.104;2022-08-11T10:20:04;101838.19;;;27.07;39.08
3122;BME280;1571;52.524;14.104;2022-08-11T10:22:34;101828.03;;;27.55;38.82
3122;BME280;1571;52.524;14.104;2022-08-11T10:25:20;101829.94;;;27.24;39.16
3122;BME280;1571;52.524;14.104;2022-08-11T10:28:07;101820.34;;;27.36;40.34
3122;BME280;1571;52.524;14.104;2022-08-11T10:30:57;101830.06;;;27.53;39.05
3122;BME280;1571;52.524;14.104;2022-08-11T10:33:45;101822.81;;;27.23;38.62
3122;BME280;1571;52.524;14.104;2022-08-11T10:36:31;101823.06;;;26.96;38.83
3122;BME280;1571;52.524;14.104;2022-08-11T10:39:02;101812.22;;;27.51;37.79
3122;BME280;1571;52.524;14.104;2022-08-11T10:41:33;101812.63;;;27.62;38.30
3122;BME280;1571;52.524;14.104;2022-08-11T10:44:36;101811.53;;;27.72;37.72
3122;BME280;1571;52.524;14.104;2022-08-11T10:47:05;101815.84;;;27.66;38.25
3122;BME280;1571;52.524;14.104;2022-08-11T10:49:53;101815.59;;;27.30;38.42
3122;BME280;1571;52.524;14.104;2022-08-11T10:52:36;101806.06;;;27.72;36.74
3122;BME280;1571;52.524;14.104;2022-08-11T10:55:23;101802.50;;;27.71;37.88
3122;BME280;1571;52.524;14.104;2022-08-11T10:58:10;101798.50;;;27.82;37.50
3122;BME280;1571;52.524;14.104;2022-08-11T11:00:58;101792.31;;;28.26;36.81
3122;BME280;1571;52.524;14.104;2022-08-11T11:03:28;101795.84;;;28.41;37.00
3122;BME280;1571;52.524;14.104;2022-08-11T11:06:03;101798.47;;;27.90;37.51
3122;BME280;1571;52.524;14.104;2022-08-11T11:08:58;101799.19;;;27.84;36.23
3122;BME280;1571;52.524;14.104;2022-08-11T11:11:34;101783.03;;;27.97;36.92
3122;BME280;1571;52.524;14.104;2022-08-11T11:14:24;101783.91;;;28.28;37.38
3122;BME280;1571;52.524;14.104;2022-08-11T11:17:24;101779.94;;;28.00;36.22
3122;BME280;1571;52.524;14.104;2022-08-11T11:20:13;101776.28;;;28.08;36.38
3122;BME280;1571;52.524;14.104;2022-08-11T11:23:13;101776.47;;;28.07;36.52
3122;BME280;1571;52.524;14.104;2022-08-11T11:25:54;101774.31;;;27.79;35.99
3122;BME280;1571;52.524;14.104;2022-08-11T11:28:53;101783.41;;;27.71;36.27
3122;BME280;1571;52.524;14.104;2022-08-11T11:31:34;101777.81;;;27.65;36.18
3122;BME280;1571;52.524;14.104;2022-08-11T11:34:19;101767.53;;;27.75;36.92
3122;BME280;1571;52.524;14.104;2022-08-11T11:36:53;101781.44;;;27.80;35.21
3122;BME280;1571;52.524;14.104;2022-08-11T11:39:26;101783.16;;;27.58;35.67
3122;BME280;1571;52.524;14.104;2022-08-11T11:41:56;101776.63;;;27.67;35.21
3122;BME280;1571;52.524;14.104;2022-08-11T11:44:27;101766.47;;;27.76;34.39
3122;BME280;1571;52.524;14.104;2022-08-11T11:46:57;101771.19;;;28.05;33.64
3122;BME280;1571;52.524;14.104;2022-08-11T11:49:28;101772.25;;;27.81;34.32
3122;BME280;1571;52.524;14.104;2022-08-11T11:51:59;101778.50;;;27.67;34.19
3122;BME280;1571;52.524;14.104;2022-08-11T11:54:31;101756.59;;;27.98;34.84
3122;BME280;1571;52.524;14.104;2022-08-11T11:57:00;101770.34;;;28.05;33.98
3122;BME280;1571;52.524;14.104;2022-08-11T11:59:53;101758.41;;;28.06;34.28
3122;BME280;1571;52.524;14.104;2022-08-11T12:02:40;101755.75;;;27.97;34.78
3122;BME280;1571;52.524;14.104;2022-08-11T12:05:10;101762.56;;;27.55;35.53
3122;BME280;1571;52.524;14.104;2022-08-11T12:07:39;101753.94;;;27.52;35.02
3122;BME280;1571;52.524;14.104;2022-08-11T12:10:43;101754.59;;;27.54;35.11
3122;BME280;1571;52.524;14.104;2022-08-11T12:13:12;101751.69;;;27.32;35.03
3122;BME280;1571;52.524;14.104;2022-08-11T12:16:01;101745.72;;;27.29;34.51
3122;BME280;1571;52.524;14.104;2022-08-11T12:18:52;101735.06;;;27.42;34.80
3122;BME280;1571;52.524;14.104;2022-08-11T12:21:23;101740.50;;;27.88;33.85
3122;BME280;1571;52.524;14.104;2022-08-11T12:23:53;101736.03;;;27.49;33.83
3122;BME280;1571;52.524;14.104;2022-08-11T12:26:42;101725.72;;;28.27;34.54
3122;BME280;1571;52.524;14.104;2022-08-11T12:29:46;101740.97;;;28.07;33.79
3122;BME280;1571;52.524;14.104;2022-08-11T12:32:22;101721.69;;;28.23;33.34
3122;BME280;1571;52.524;14.104;2022-08-11T12:34:52;101726.09;;;27.94;33.29
3122;BME280;1571;52.524;14.104;2022-08-11T12:37:27;101722.25;;;28.33;33.52
3122;BME280;1571;52.524;14.104;2022-08-11T12:39:59;101716.28;;;27.85;32.89
3122;BME280;1571;52.524;14.104;2022-08-11T12:43:11;101708.16;;;28.15;33.94
3122;BME280;1571;52.524;14.104;2022-08-11T12:46:07;101705.03;;;27.88;34.63
3122;BME280;1571;52.524;14.104;2022-08-11T12:48:41;101702.78;;;27.69;34.34
3122;BME280;1571;52.524;14.104;2022-08-11T12:51:34;101688.91;;;28.23;34.41
3122;BME280;1571;52.524;14.104;2022-08-11T12:54:47;101684.66;;;28.65;35.08
3122;BME280;1571;52.524;14.104;2022-08-11T12:57:21;101686.63;;;28.71;33.63
3122;BME280;1571;52.524;14.104;2022-08-11T13:00:12;101687.78;;;28.32;33.55
3122;BME280;1571;52.524;14.104;2022-08-11T13:02:58;101683.72;;;28.43;33.82
3122;BME280;1571;52.524;14.104;2022-08-11T13:05:46;101682.22;;;28.26;33.35
3122;BME280;1571;52.524;14.104;2022-08-11T13:08:16;101681.81;;;27.54;33.04
3122;BME280;1571;52.524;14.104;2022-08-11T13:10:45;101678.53;;;27.74;32.87
3122;BME280;1571;52.524;14.104;2022-08-11T13:13:31;101664.66;;;28.28;34.59
3122;BME280;1571;52.524;14.104;2022-08-11T13:16:22;101674.53;;;28.14;33.06
3122;BME280;1571;52.524;14.104;2022-08-11T13:18:51;101675.00;;;28.18;32.52
3122;BME280;1571;52.524;14.104;2022-08-11T13:21:20;101679.59;;;28.32;32.38
3122;BME280;1571;52.524;14.104;2022-08-11T13:23:51;101673.50;;;28.00;33.34
3122;BME280;1571;52.524;14.104;2022-08-11T13:26:30;101660.59;;;27.94;32.70
3122;BME280;1571;52.524;14.104;2022-08-11T13:29:17;101663.69;;;28.21;33.12
3122;BME280;1571;52.524;14.104;2022-08-11T13:31:48;101663.81;;;28.13;32.91
3122;BME280;1571;52.524;14.104;2022-08-11T13:34:18;101662.47;;;27.94;32.76
3122;BME280;1571;52.524;14.104;2022-08-11T13:36:49;101659.47;;;28.18;32.62
3122;BME280;1571;52.524;14.104;2022-08-11T13:39:19;101654.47;;;28.22;32.86
3122;BME280;1571;52.524;14.104;2022-08-11T13:41:52;101660.59;;;28.09;32.82
3122;BME280;1571;52.524;14.104;2022-08-11T13:44:23;101661.25;;;28.26;33.05
3122;BME280;1571;52.524;14.104;2022-08-11T13:46:55;101651.34;;;28.40;33.53
3122;BME280;1571;52.524;14.104;2022-08-11T13:49:25;101643.22;;;28.10;33.43
3122;BME280;1571;52.524;14.104;2022-08-11T13:51:54;101644.84;;;28.56;33.98
3122;BME280;1571;52.524;14.104;2022-08-11T13:54:25;101643.91;;;28.19;33.20
3122;BME280;1571;52.524;14.104;2022-08-11T13:56:56;101644.56;;;28.51;33.31
3122;BME280;1571;52.524;14.104;2022-08-11T13:59:28;101650.91;;;28.21;33.04
3122;BME280;1571;52.524;14.104;2022-08-11T14:02:00;101639.59;;;28.39;33.44
3122;BME280;1571;52.524;14.104;2022-08-11T14:04:52;101630.53;;;28.54;32.79
3122;BME280;1571;52.524;14.104;2022-08-11T14:07:23;101627.44;;;28.42;33.46
3122;BME280;1571;52.524;14.104;2022-08-11T14:09:56;101642.50;;;28.38;32.84
3122;BME280;1571;52.524;14.104;2022-08-11T14:12:26;101632.69;;;27.92;33.12
3122;BME280;1571;52.524;14.104;2022-08-11T14:15:17;101622.03;;;28.85;32.35
3122;BME280;1571;52.524;14.104;2022-08-11T14:17:51;101630.81;;;28.80;32.51
3122;BME280;1571;52.524;14.104;2022-08-11T14:20:23;101629.88;;;28.37;33.08
3122;BME280;1571;52.524;14.104;2022-08-11T14:23:12;101637.13;;;28.44;32.16
3122;BME280;1571;52.524;14.104;2022-08-11T14:25:41;101621.88;;;28.72;32.15
3122;BME280;1571;52.524;14.104;2022-08-11T14:28:32;101610.97;;;28.72;33.02
3122;BME280;1571;52.524;14.104;2022-08-11T14:31:08;101617.97;;;28.59;32.45
3122;BME280;1571;52.524;14.104;2022-08-11T14:33:39;101614.28;;;28.67;32.49
3122;BME280;1571;52.524;14.104;2022-08-11T14:36:30;101608.94;;;28.80;32.24
3122;BME280;1571;52.524;14.104;2022-08-11T14:39:02;101608.03;;;29.16;32.44
3122;BME280;1571;52.524;14.104;2022-08-11T14:41:31;101613.25;;;28.90;31.21
3122;BME280;1571;52.524;14.104;2022-08-11T14:44:41;101608.28;;;29.21;31.58